createdAt,value
2018-09-03T00:00:31.003Z,101198.33
2018-09-03T00:05:35.741Z,101191.68
2018-09-03T00:10:39.358Z,101181.34
2018-09-03T00:15:42.840Z,101178.27
2018-09-03T00:20:46.515Z,101167.04
2018-09-03T00:25:49.977Z,101154.69
2018-09-03T00:30:57.613Z,101147.16
2018-09-03T00:36:06.805Z,101141.87
2018-09-03T00:41:15.944Z,101129.64
2018-09-03T00:46:24.666Z,101129.88
2018-09-03T00:51:29.242Z,101131.83
2018-09-03T00:56:32.840Z,101129.05
2018-09-03T01:01:36.293Z,101124.00
2018-09-03T01:06:39.840Z,101122.11
2018-09-03T01:11:43.363Z,101120.27
2018-09-03T01:16:46.930Z,101109.92
2018-09-03T01:21:50.418Z,101095.63
2018-09-03T01:26:54.296Z,101096.20
2018-09-03T01:31:57.806Z,101100.82
2018-09-03T01:37:01.402Z,101100.75
2018-09-03T01:42:04.945Z,101102.53
2018-09-03T01:47:08.561Z,101110.80
2018-09-03T01:52:12.206Z,101114.95
2018-09-03T01:57:16.253Z,101113.41
2018-09-03T02:02:19.905Z,101108.05
2018-09-03T02:07:23.437Z,101105.58
2018-09-03T02:12:27.370Z,101105.12
2018-09-03T02:17:30.922Z,101109.08
2018-09-03T02:22:35.684Z,101119.24
2018-09-03T02:27:39.807Z,101135.45
2018-09-03T02:32:43.546Z,101140.42
2018-09-03T02:37:47.275Z,101133.20
2018-09-03T02:42:50.819Z,101139.59
2018-09-03T02:47:54.338Z,101135.31
2018-09-03T02:52:57.972Z,101096.00
2018-09-03T02:58:01.600Z,101067.34
2018-09-03T03:03:05.109Z,101071.72
2018-09-03T03:08:08.669Z,101081.93
2018-09-03T03:13:12.200Z,101088.84
2018-09-03T03:18:16.056Z,101088.98
2018-09-03T03:23:19.677Z,101080.15
2018-09-03T03:28:23.664Z,101069.92
2018-09-03T03:33:27.538Z,101064.53
2018-09-03T03:38:31.261Z,101059.83
2018-09-03T03:43:37.656Z,101052.31
2018-09-03T03:48:41.319Z,101050.98
2018-09-03T03:53:44.767Z,101044.82
2018-09-03T03:58:48.709Z,101039.11
2018-09-03T04:03:53.337Z,101038.03
2018-09-03T04:08:56.889Z,101028.95
2018-09-03T04:14:00.623Z,101032.06
2018-09-03T04:19:04.222Z,101028.23
2018-09-03T04:24:07.971Z,101021.50
2018-09-03T04:29:11.513Z,101033.52
2018-09-03T04:34:16.125Z,101027.24
2018-09-03T04:39:19.813Z,101019.06
2018-09-03T04:44:23.427Z,101023.01
2018-09-03T04:49:27.080Z,101016.11
2018-09-03T04:54:30.762Z,101016.33
2018-09-03T04:59:34.290Z,101019.20
2018-09-03T05:04:37.763Z,101019.59
2018-09-03T05:09:42.608Z,101023.50
2018-09-03T05:14:46.115Z,101014.27
2018-09-03T05:19:50.475Z,100997.94
2018-09-03T05:24:54.487Z,101006.13
2018-09-03T05:29:58.049Z,100996.05
2018-09-03T05:35:02.394Z,101000.81
2018-09-03T05:40:06.605Z,101006.98
2018-09-03T05:45:10.154Z,101009.16
2018-09-03T05:50:13.990Z,101015.03
2018-09-03T05:55:17.557Z,101019.41
2018-09-03T06:00:28.109Z,101012.41
2018-09-03T06:05:31.825Z,101021.13
2018-09-03T06:10:35.698Z,101014.83
2018-09-03T06:15:39.227Z,101013.44
2018-09-03T06:20:42.963Z,101028.13
2018-09-03T06:25:46.424Z,101049.75
2018-09-03T06:30:49.945Z,101045.68
2018-09-03T06:35:54.567Z,101047.66
2018-09-03T06:40:58.161Z,101041.77
2018-09-03T06:46:02.259Z,101038.20
2018-09-03T06:51:07.607Z,101032.39
2018-09-03T06:56:11.705Z,101031.16
2018-09-03T07:01:15.225Z,101026.75
2018-09-03T07:06:20.094Z,101022.84
2018-09-03T07:11:23.665Z,101027.02
2018-09-03T07:16:27.161Z,101022.08
2018-09-03T07:21:30.704Z,101012.95
2018-09-03T07:26:34.249Z,101005.16
2018-09-03T07:31:38.319Z,101003.05
2018-09-03T07:36:42.658Z,101002.69
2018-09-03T07:41:46.349Z,100998.83
2018-09-03T07:46:49.848Z,101001.58
2018-09-03T07:51:53.853Z,100992.24
2018-09-03T07:56:57.378Z,100990.20
2018-09-03T08:02:01.478Z,100990.06
2018-09-03T08:07:05.105Z,100982.36
2018-09-03T08:12:08.694Z,100973.36
2018-09-03T08:17:12.160Z,100987.69
2018-09-03T08:22:15.734Z,100966.31
2018-09-03T08:27:19.223Z,100956.63
2018-09-03T08:32:22.976Z,100970.66
2018-09-03T08:37:26.491Z,100961.70
2018-09-03T08:42:30.337Z,100961.21
2018-09-03T08:47:33.825Z,100958.81
2018-09-03T08:52:38.079Z,100960.84
2018-09-03T08:57:41.730Z,100963.13
2018-09-03T09:02:45.728Z,100965.78
2018-09-03T09:07:49.210Z,100958.23
2018-09-03T09:12:52.725Z,100970.00
2018-09-03T09:17:56.265Z,100969.11
2018-09-03T09:22:59.858Z,100965.13
2018-09-03T09:28:04.237Z,100964.12
2018-09-03T09:33:08.108Z,100960.52
2018-09-03T09:38:11.573Z,100951.55
2018-09-03T09:43:15.254Z,100946.70
2018-09-03T09:48:18.679Z,100944.27
2018-09-03T09:53:22.238Z,100935.09
2018-09-03T09:58:25.892Z,100921.34
2018-09-03T10:03:29.556Z,100921.08
2018-09-03T10:08:33.026Z,100915.36
2018-09-03T10:13:36.789Z,100906.97
2018-09-03T10:18:40.636Z,100913.66
2018-09-03T10:23:44.440Z,100920.85
2018-09-03T10:28:55.732Z,100911.75
2018-09-03T10:33:59.462Z,100911.39
2018-09-03T10:39:03.089Z,100915.33
2018-09-03T10:44:07.595Z,100912.60
2018-09-03T10:49:11.073Z,100900.22
2018-09-03T10:54:14.710Z,100892.92
2018-09-03T10:59:18.263Z,100893.41
2018-09-03T11:04:21.873Z,100891.96
2018-09-03T11:09:25.429Z,100892.48
2018-09-03T11:14:29.172Z,100896.52
2018-09-03T11:19:35.397Z,100912.02
2018-09-03T11:24:39.688Z,100910.06
2018-09-03T11:29:43.932Z,100896.53
2018-09-03T11:34:47.902Z,100882.73
2018-09-03T11:39:51.373Z,100885.05
2018-09-03T11:44:54.933Z,100879.47
2018-09-03T11:49:58.415Z,100884.30
2018-09-03T11:55:02.256Z,100865.20
2018-09-03T12:00:08.415Z,100851.42
2018-09-03T12:05:13.074Z,100856.47
2018-09-03T12:10:16.693Z,100846.00
2018-09-03T12:15:27.254Z,100843.81
2018-09-03T12:20:31.008Z,100842.84
2018-09-03T12:25:34.781Z,100839.98
2018-09-03T12:30:38.251Z,100836.93
2018-09-03T12:35:42.181Z,100846.97
2018-09-03T12:40:45.997Z,100841.31
2018-09-03T12:45:54.865Z,100843.02
2018-09-03T12:50:59.156Z,100836.19
2018-09-03T12:56:03.432Z,100847.34
2018-09-03T13:01:07.137Z,100850.58
2018-09-03T13:06:10.995Z,100848.44
2018-09-03T13:11:14.465Z,100851.24
2018-09-03T13:16:18.574Z,100853.76
2018-09-03T13:21:22.112Z,100849.77
2018-09-03T13:26:25.694Z,100849.22
2018-09-03T13:31:29.429Z,100849.12
2018-09-03T13:36:35.475Z,100840.09
2018-09-03T13:41:39.543Z,100843.14
2018-09-03T13:46:43.105Z,100847.45
2018-09-03T13:51:46.584Z,100848.08
2018-09-03T13:56:50.174Z,100843.13
2018-09-03T14:01:53.807Z,100841.09
2018-09-03T14:06:57.654Z,100836.58
2018-09-03T14:12:01.196Z,100833.16
2018-09-03T14:17:04.753Z,100832.69
2018-09-03T14:22:08.782Z,100830.46
2018-09-03T14:27:12.401Z,100845.08
2018-09-03T14:32:15.910Z,100838.64
2018-09-03T14:37:19.687Z,100833.53
2018-09-03T14:42:23.249Z,100830.34
2018-09-03T14:47:27.017Z,100826.52
2018-09-03T14:52:30.492Z,100829.66
2018-09-03T14:57:34.051Z,100828.11
2018-09-03T15:02:37.553Z,100835.37
2018-09-03T15:07:41.073Z,100833.35
2018-09-03T15:12:44.600Z,100831.11
2018-09-03T15:17:48.202Z,100826.55
2018-09-03T15:22:51.753Z,100823.17
2018-09-03T15:27:56.585Z,100836.23
2018-09-03T15:33:00.104Z,100835.02
2018-09-03T15:38:04.497Z,100823.26
2018-09-03T15:43:08.061Z,100823.27
2018-09-03T15:48:12.529Z,100821.58
2018-09-03T15:53:16.016Z,100817.73
2018-09-03T15:58:19.750Z,100825.01
2018-09-03T16:03:23.946Z,100826.53
2018-09-03T16:08:27.511Z,100826.25
2018-09-03T16:13:31.055Z,100821.59
2018-09-03T16:18:34.761Z,100820.95
2018-09-03T16:23:38.353Z,100816.04
2018-09-03T16:28:41.891Z,100810.35
2018-09-03T16:33:45.406Z,100803.52
2018-09-03T16:38:49.570Z,100796.67
2018-09-03T16:43:54.238Z,100794.77
2018-09-03T16:48:58.942Z,100796.95
2018-09-03T16:54:02.725Z,100807.41
2018-09-03T16:59:06.464Z,100800.39
2018-09-03T17:04:10.215Z,100799.71
2018-09-03T17:09:14.023Z,100787.25
2018-09-03T17:14:23.682Z,100790.49
2018-09-03T17:19:27.486Z,100786.44
2018-09-03T17:24:31.497Z,100794.77
2018-09-03T17:29:35.060Z,100791.02
2018-09-03T17:34:38.581Z,100794.03
2018-09-03T17:39:42.401Z,100801.03
2018-09-03T17:44:46.107Z,100799.06
2018-09-03T17:49:49.807Z,100807.22
2018-09-03T17:54:53.458Z,100805.38
2018-09-03T17:59:57.068Z,100808.82
2018-09-03T18:05:00.785Z,100804.75
2018-09-03T18:10:04.372Z,100812.08
2018-09-03T18:15:08.085Z,100803.59
2018-09-03T18:20:11.784Z,100809.65
2018-09-03T18:25:15.335Z,100798.66
2018-09-03T18:30:32.101Z,100802.34
2018-09-03T18:35:35.592Z,100803.37
2018-09-03T18:40:39.478Z,100805.08
2018-09-03T18:45:43.003Z,100804.38
2018-09-03T18:50:46.513Z,100806.11
2018-09-03T18:55:50.082Z,100812.73
2018-09-03T19:00:54.181Z,100820.36
2018-09-03T19:05:57.944Z,100818.72
2018-09-03T19:11:01.504Z,100821.25
2018-09-03T19:16:05.261Z,100831.51
2018-09-03T19:21:08.973Z,100830.13
2018-09-03T19:26:12.461Z,100829.02
2018-09-03T19:31:16.025Z,100827.53
2018-09-03T19:36:19.618Z,100825.98
2018-09-03T19:41:23.993Z,100833.91
2018-09-03T19:46:28.113Z,100833.83
2018-09-03T19:51:32.828Z,100824.00
2018-09-03T19:56:37.010Z,100819.20
2018-09-03T20:01:41.425Z,100831.47
2018-09-03T20:06:46.020Z,100833.91
2018-09-03T20:11:50.090Z,100827.16
2018-09-03T20:16:54.048Z,100825.16
2018-09-03T20:21:58.006Z,100828.23
2018-09-03T20:27:01.542Z,100827.67
2018-09-03T20:32:05.273Z,100834.90
2018-09-03T20:37:09.749Z,100832.59
2018-09-03T20:42:13.292Z,100832.20
2018-09-03T20:47:16.785Z,100824.17
2018-09-03T20:52:20.950Z,100830.48
2018-09-03T20:57:25.567Z,100839.59
2018-09-03T21:02:29.100Z,100830.02
2018-09-03T21:07:32.732Z,100828.27
2018-09-03T21:12:37.081Z,100818.79
2018-09-03T21:17:41.156Z,100828.27
2018-09-03T21:22:44.677Z,100818.81
2018-09-03T21:27:48.231Z,100813.52
2018-09-03T21:32:51.986Z,100815.13
2018-09-03T21:37:56.126Z,100811.45
2018-09-03T21:43:00.164Z,100811.06
2018-09-03T21:48:04.136Z,100809.74
2018-09-03T21:53:07.802Z,100803.25
2018-09-03T21:58:11.290Z,100798.17
2018-09-03T22:03:14.990Z,100800.77
2018-09-03T22:08:18.784Z,100803.74
2018-09-03T22:13:22.511Z,100801.20
2018-09-03T22:18:26.500Z,100803.19
2018-09-03T22:23:30.082Z,100799.41
2018-09-03T22:28:34.753Z,100801.74
2018-09-03T22:33:38.293Z,100808.39
2018-09-03T22:38:41.795Z,100811.89
2018-09-03T22:43:45.411Z,100812.94
2018-09-03T22:48:49.157Z,100811.62
2018-09-03T22:53:53.820Z,100817.05
2018-09-03T22:58:57.281Z,100818.77
2018-09-03T23:04:00.837Z,100817.86
2018-09-03T23:09:05.108Z,100817.40
2018-09-03T23:14:09.566Z,100817.01
2018-09-03T23:19:13.017Z,100806.05
2018-09-03T23:24:16.611Z,100798.40
2018-09-03T23:29:23.405Z,100798.55
2018-09-03T23:34:27.033Z,100786.97
2018-09-03T23:39:30.530Z,100775.54
2018-09-03T23:44:34.652Z,100773.05
2018-09-03T23:49:38.178Z,100765.59
2018-09-03T23:54:42.538Z,100763.06
2018-09-03T23:59:46.064Z,100753.41
